Time;durP1;ratioP1;P1;durP2;ratioP2;P2;SDS_P1;SDS_P2;PMS_P1;PMS_P2;Temp;Humidity;BMP_temperature;BMP_pressure;BME280_temperature;BME280_humidity;BME280_pressure;Samples;Min_cycle;Max_cycle;Signal;HPM_P1;HPM_P2
2023/01/30 00:01:20;;;;;;;16.00;10.23;;;6.90;99.90;;;;;;5079536;28;20047;-77
2023/01/30 00:03:48;;;;;;;;;;;6.90;99.90;;;;;;5063320;28;20034;-77
2023/01/30 00:06:43;;;;;;;18.55;9.13;;;6.80;99.90;;;;;;5074390;28;19977;-77
2023/01/30 00:09:13;;;;;;;22.83;9.52;;;7.10;99.90;;;;;;5065445;28;20423;-78
2023/01/30 00:11:39;;;;;;;18.00;8.60;;;7.10;99.90;;;;;;5082757;28;20114;-75
2023/01/30 00:14:04;;;;;;;17.13;10.07;;;7.10;99.90;;;;;;5063999;28;20133;-76
2023/01/30 00:16:30;;;;;;;15.43;9.10;;;7.00;99.90;;;;;;5068871;28;20036;-76
2023/01/30 00:18:56;;;;;;;19.02;8.63;;;7.00;99.90;;;;;;5060616;28;20122;-75
2023/01/30 00:21:22;;;;;;;15.00;8.40;;;7.10;99.90;;;;;;5043482;28;20043;-77
2023/01/30 00:23:47;;;;;;;17.27;8.05;;;7.00;99.90;;;;;;5060597;28;20106;-77
2023/01/30 00:26:15;;;;;;;17.58;8.85;;;7.20;99.90;;;;;;5058992;28;20372;-77
2023/01/30 00:28:41;;;;;;;17.55;9.23;;;7.00;99.90;;;;;;5082932;28;20032;-75
2023/01/30 00:31:07;;;;;;;14.10;8.27;;;7.20;99.90;;;;;;5089659;28;20042;-76
2023/01/30 00:33:35;;;;;;;15.80;7.68;;;7.00;99.90;;;;;;5058016;28;20344;-77
2023/01/30 00:36:02;;;;;;;16.02;8.88;;;7.20;99.90;;;;;;5088287;28;20123;-76
2023/01/30 00:38:27;;;;;;;14.57;8.80;;;7.00;99.90;;;;;;5080614;28;20341;-76
2023/01/30 00:40:53;;;;;;;13.63;7.65;;;7.00;99.90;;;;;;5098261;28;20032;-76
2023/01/30 00:47:04;;;;;;;;;;;7.00;99.90;;;;;;5083583;28;20409;-77
2023/01/30 00:49:15;;;;;;;19.85;8.15;;;7.20;99.90;;;;;;5091809;28;19935;-76
2023/01/30 00:51:40;;;;;;;18.27;8.15;;;7.00;99.90;;;;;;5079980;28;20062;-77
2023/01/30 00:54:06;;;;;;;17.20;8.23;;;6.90;99.90;;;;;;5069791;28;20039;-77
2023/01/30 00:57:01;;;;;;;13.88;8.75;;;7.00;99.90;;;;;;5089114;28;20040;-76
2023/01/30 00:59:27;;;;;;;17.85;7.78;;;7.10;99.90;;;;;;5073977;28;20035;-75
2023/01/30 01:01:53;;;;;;;14.65;7.80;;;7.00;99.90;;;;;;5082539;28;20064;-76
2023/01/30 01:04:21;;;;;;;15.18;8.27;;;6.90;99.90;;;;;;5060724;28;20024;-79
2023/01/30 01:06:54;;;;;;;14.35;7.88;;;7.10;99.90;;;;;;5039387;28;20122;-79
2023/01/30 01:09:19;;;;;;;11.63;7.28;;;7.20;99.90;;;;;;5070369;28;20058;-79
2023/01/30 01:13:29;;;;;;;;;;;;;;;;;;;;;
2023/01/30 01:15:55;;;;;;;12.88;7.25;;;7.10;99.90;;;;;;4936136;28;20074;-76
2023/01/30 01:18:24;;;;;;;17.85;8.45;;;7.00;99.90;;;;;;4968471;28;20319;-77
2023/01/30 01:20:50;;;;;;;17.83;7.68;;;7.10;99.90;;;;;;5043290;28;20085;-81
2023/01/30 01:23:34;;;;;;;12.63;5.85;;;6.80;99.90;;;;;;5064871;28;20115;-77
2023/01/30 01:30:00;;;;;;;15.80;5.88;;;6.80;99.90;;;;;;5023033;28;20051;-81
2023/01/30 01:32:25;;;;;;;10.00;5.47;;;7.20;99.90;;;;;;5017118;28;20104;-80
2023/01/30 01:34:51;;;;;;;10.48;5.50;;;6.90;99.90;;;;;;5032809;28;20040;-78
2023/01/30 01:37:17;;;;;;;13.25;5.63;;;7.30;99.90;;;;;;5001222;28;20106;-79
2023/01/30 01:42:35;;;;;;;12.40;4.72;;;7.00;99.90;;;;;;5021206;28;20053;-78
2023/01/30 01:45:10;;;;;;;10.68;4.57;;;7.50;99.90;;;;;;5004522;28;20049;-79
2023/01/30 01:47:53;;;;;;;8.40;4.63;;;7.50;99.90;;;;;;5013428;28;20033;-80
2023/01/30 01:50:23;;;;;;;8.27;4.95;;;7.20;99.90;;;;;;5016749;28;20346;-80
2023/01/30 01:53:13;;;;;;;9.25;4.15;;;7.10;99.90;;;;;;4996581;28;20041;-79
2023/01/30 01:55:42;;;;;;;12.18;4.93;;;7.70;99.90;;;;;;5025517;28;20044;-83
2023/01/30 01:58:15;;;;;;;11.13;5.63;;;7.70;99.90;;;;;;5038971;28;20287;-79
2023/01/30 02:00:41;;;;;;;7.47;4.70;;;7.10;99.90;;;;;;5050766;28;20082;-78
2023/01/30 02:03:13;;;;;;;10.25;5.18;;;7.70;99.90;;;;;;5044552;28;20028;-79
2023/01/30 02:05:45;;;;;;;12.82;5.78;;;7.10;99.90;;;;;;5078455;28;20066;-78
2023/01/30 02:08:23;;;;;;;;;;;;;;;;;;;;;
2023/01/30 02:10:52;;;;;;;14.20;6.32;;;7.70;99.90;;;;;;5063097;28;20072;-77
2023/01/30 02:13:18;;;;;;;10.43;6.10;;;7.30;99.90;;;;;;5058656;28;20028;-79
2023/01/30 02:15:44;;;;;;;12.75;6.05;;;7.10;99.90;;;;;;5064530;28;20055;-80
2023/01/30 02:18:12;;;;;;;18.05;7.28;;;7.10;99.90;;;;;;5062260;28;20040;-80
2023/01/30 02:20:57;;;;;;;18.38;8.18;;;7.90;99.90;;;;;;5046403;28;20033;-77
2023/01/30 02:23:43;;;;;;;14.63;6.75;;;7.40;99.90;;;;;;5076486;28;20040;-76
2023/01/30 02:26:34;;;;;;;21.13;7.95;;;7.80;99.90;;;;;;5079737;28;20316;-80
2023/01/30 02:29:34;;;;;;;27.15;8.57;;;7.20;99.90;;;;;;5079389;28;20024;-80
2023/01/30 02:32:07;;;;;;;17.23;6.55;;;7.90;99.90;;;;;;5089766;28;20200;-78
2023/01/30 02:34:57;;;;;;;22.17;7.32;;;7.70;99.90;;;;;;5047831;28;20127;-80
2023/01/30 02:37:47;;;;;;;24.58;7.80;;;8.10;99.90;;;;;;5048279;28;20379;-79
2023/01/30 02:41:07;;;;;;;25.75;7.40;;;7.20;99.90;;;;;;5080791;28;20028;-79
2023/01/30 02:43:47;;;;;;;23.52;7.38;;;7.40;99.90;;;;;;5057759;28;20041;-79
2023/01/30 02:46:49;;;;;;;20.95;6.90;;;7.90;99.90;;;;;;5084131;28;20040;-78
2023/01/30 02:49:20;;;;;;;27.08;7.65;;;7.30;99.90;;;;;;5097770;28;20028;-80
2023/01/30 02:51:50;;;;;;;21.63;5.85;;;7.30;99.90;;;;;;5081130;28;20197;-78
2023/01/30 02:54:15;;;;;;;20.55;6.53;;;8.10;99.90;;;;;;5052376;28;20078;-80
2023/01/30 02:56:47;;;;;;;20.27;6.15;;;7.60;99.90;;;;;;5091107;28;20451;-79
2023/01/30 02:59:17;;;;;;;21.42;6.47;;;7.20;99.90;;;;;;5098456;28;20082;-82
2023/01/30 03:02:18;;;;;;;22.42;6.55;;;7.30;99.90;;;;;;5096443;28;20035;-79
2023/01/30 03:05:04;;;;;;;22.25;6.65;;;8.00;99.90;;;;;;5052684;28;20051;-80
2023/01/30 03:07:45;;;;;;;21.00;5.43;;;7.90;99.90;;;;;;5081507;28;20062;-78
2023/01/30 03:10:46;;;;;;;23.08;6.55;;;7.40;99.90;;;;;;5080121;28;20035;-79
2023/01/30 03:13:31;;;;;;;17.58;5.05;;;7.20;99.90;;;;;;5078334;28;20135;-78
2023/01/30 03:16:05;;;;;;;11.68;5.07;;;7.60;99.90;;;;;;5091439;28;20038;-78
2023/01/30 03:18:31;;;;;;;14.40;4.60;;;8.00;99.90;;;;;;5094854;28;20086;-78
2023/01/30 03:21:05;;;;;;;25.77;6.05;;;8.00;99.90;;;;;;5083528;28;20044;-79
2023/01/30 03:23:31;;;;;;;23.23;5.43;;;7.50;99.90;;;;;;5097963;28;20091;-78
2023/01/30 03:25:58;;;;;;;22.73;5.30;;;7.10;99.90;;;;;;5064069;28;20327;-78
2023/01/30 03:28:25;;;;;;;17.45;4.45;;;8.40;99.90;;;;;;5093222;28;20485;-78
2023/01/30 03:30:51;;;;;;;16.77;4.10;;;7.40;99.90;;;;;;5080805;28;20032;-78
2023/01/30 03:33:17;;;;;;;18.38;5.50;;;7.40;99.90;;;;;;5057794;28;20028;-78
2023/01/30 03:35:43;;;;;;;17.10;3.90;;;7.70;99.90;;;;;;5081787;28;20039;-78
2023/01/30 03:38:09;;;;;;;14.40;3.63;;;7.40;99.90;;;;;;5075502;28;20035;-78
2023/01/30 03:40:35;;;;;;;14.68;4.25;;;7.00;99.90;;;;;;5078150;28;20748;-77
2023/01/30 03:43:04;;;;;;;22.70;3.55;;;6.70;99.90;;;;;;5058164;28;20096;-77
2023/01/30 03:45:30;;;;;;;18.08;4.15;;;7.10;99.90;;;;;;5058693;28;20036;-79
2023/01/30 03:47:55;;;;;;;18.17;3.95;;;6.90;99.90;;;;;;5076251;28;20024;-78
2023/01/30 03:50:21;;;;;;;18.83;4.18;;;7.10;99.90;;;;;;5059625;28;20028;-78
2023/01/30 03:52:47;;;;;;;14.43;4.03;;;7.00;99.90;;;;;;5061248;28;20040;-78
2023/01/30 03:55:12;;;;;;;17.10;4.47;;;6.90;99.90;;;;;;5094737;28;20019;-78
2023/01/30 03:57:40;;;;;;;20.70;4.30;;;6.70;99.90;;;;;;5076304;28;20035;-78
2023/01/30 04:00:10;;;;;;;17.20;3.53;;;6.40;99.90;;;;;;5063358;28;20030;-78
2023/01/30 04:02:37;;;;;;;22.10;4.38;;;6.30;99.90;;;;;;5095191;28;20063;-78
2023/01/30 04:05:04;;;;;;;18.02;4.30;;;6.40;99.90;;;;;;5059525;28;20032;-78
2023/01/30 04:07:30;;;;;;;22.83;4.85;;;6.10;99.90;;;;;;5061489;28;20107;-78
2023/01/30 04:09:56;;;;;;;19.17;3.15;;;6.40;99.90;;;;;;5078063;28;20199;-77
2023/01/30 04:12:21;;;;;;;19.40;3.72;;;6.10;99.90;;;;;;5094675;28;20020;-76
2023/01/30 04:15:10;;;;;;;18.35;3.42;;;6.40;99.90;;;;;;5095454;28;20331;-77
2023/01/30 04:17:39;;;;;;;20.55;3.47;;;6.20;99.90;;;;;;5065778;28;20065;-77
2023/01/30 04:20:09;;;;;;;18.70;3.65;;;6.10;99.90;;;;;;5092028;28;20823;-78
2023/01/30 04:22:35;;;;;;;16.38;3.67;;;6.60;99.90;;;;;;5091141;28;20047;-78
2023/01/30 04:25:00;;;;;;;17.65;3.97;;;6.00;99.90;;;;;;5061068;28;20031;-78
2023/01/30 04:27:26;;;;;;;19.92;3.75;;;6.50;99.90;;;;;;5075406;28;20028;-78
2023/01/30 04:29:52;;;;;;;14.75;3.22;;;6.20;99.90;;;;;;5075059;28;20206;-77
2023/01/30 04:32:17;;;;;;;15.65;2.97;;;6.10;99.90;;;;;;5048877;28;20028;-78
2023/01/30 04:34:44;;;;;;;22.95;4.30;;;6.00;99.90;;;;;;5075105;28;20042;-78
2023/01/30 04:37:11;;;;;;;14.57;3.22;;;6.00;99.90;;;;;;5041548;28;20028;-80
2023/01/30 04:39:36;;;;;;;19.30;4.03;;;5.80;99.90;;;;;;5092318;28;20039;-78
2023/01/30 04:42:03;;;;;;;24.90;4.65;;;5.80;99.90;;;;;;5080965;28;20060;-79
2023/01/30 04:44:31;;;;;;;19.95;4.70;;;5.70;99.90;;;;;;5081606;28;20124;-79
2023/01/30 04:46:56;;;;;;;23.13;4.38;;;5.60;99.90;;;;;;5073974;28;20027;-79
2023/01/30 04:49:22;;;;;;;17.13;3.25;;;5.60;99.90;;;;;;5084039;28;20072;-82
2023/01/30 04:51:48;;;;;;;25.42;4.05;;;5.60;99.90;;;;;;5084079;28;20103;-79
2023/01/30 04:54:13;;;;;;;19.00;3.20;;;5.50;99.90;;;;;;5086325;28;20032;-77
2023/01/30 04:56:39;;;;;;;20.55;4.28;;;5.80;99.90;;;;;;5069025;28;20038;-77
2023/01/30 04:59:05;;;;;;;15.68;3.65;;;5.40;99.90;;;;;;5085940;28;20471;-79
2023/01/30 05:01:33;;;;;;;18.60;3.75;;;5.80;99.90;;;;;;5068996;28;20054;-77
2023/01/30 05:04:00;;;;;;;18.67;4.60;;;5.70;99.90;;;;;;5102785;28;20286;-79
2023/01/30 05:06:26;;;;;;;22.42;4.28;;;5.80;99.90;;;;;;5101750;28;20035;-77
2023/01/30 05:08:54;;;;;;;27.95;4.50;;;6.00;99.90;;;;;;5102367;28;20036;-77
2023/01/30 05:11:31;;;;;;;25.17;6.57;;;5.90;99.90;;;;;;5083841;28;20183;-77
2023/01/30 05:13:57;;;;;;;18.55;3.72;;;5.80;99.90;;;;;;5078045;28;20099;-77
2023/01/30 05:16:24;;;;;;;20.50;4.25;;;5.80;99.90;;;;;;5084023;28;20365;-77
2023/01/30 05:18:50;;;;;;;17.58;3.38;;;5.60;99.90;;;;;;5086681;28;20236;-75
2023/01/30 05:22:05;;;;;;;26.45;4.55;;;5.60;99.90;;;;;;5102597;28;20091;-76
2023/01/30 05:24:31;;;;;;;18.40;3.20;;;5.50;99.90;;;;;;5083012;28;20306;-76
2023/01/30 05:26:56;;;;;;;19.45;3.28;;;5.70;99.90;;;;;;5102343;28;20027;-78
2023/01/30 05:29:28;;;;;;;18.70;3.53;;;5.50;99.90;;;;;;5065968;28;20214;-78
2023/01/30 05:31:54;;;;;;;19.00;3.60;;;5.70;99.90;;;;;;5054052;28;20032;-78
2023/01/30 05:34:20;;;;;;;22.80;4.18;;;5.60;99.90;;;;;;5099856;28;20140;-79
2023/01/30 05:36:46;;;;;;;19.42;3.85;;;5.70;99.90;;;;;;5088300;28;20043;-78
2023/01/30 05:39:11;;;;;;;25.45;3.67;;;5.60;99.90;;;;;;5106556;28;20032;-78
2023/01/30 05:41:37;;;;;;;22.67;4.32;;;6.10;99.90;;;;;;5088810;28;20084;-78
2023/01/30 05:44:09;;;;;;;20.92;3.83;;;6.50;99.90;;;;;;5106293;28;20409;-77
2023/01/30 05:46:35;;;;;;;20.77;3.83;;;5.50;99.90;;;;;;5105801;28;20031;-77
2023/01/30 05:49:03;;;;;;;18.67;3.70;;;5.40;99.90;;;;;;5072841;28;20031;-78
2023/01/30 05:51:49;;;;;;;20.98;3.13;;;5.50;99.90;;;;;;5088852;28;20035;-76
2023/01/30 05:54:25;;;;;;;26.77;3.92;;;5.60;99.90;;;;;;5089313;28;20080;-76
2023/01/30 05:56:51;;;;;;;23.65;3.45;;;5.40;99.90;;;;;;5070698;28;20050;-77
2023/01/30 05:59:20;;;;;;;21.52;4.07;;;5.60;99.90;;;;;;5089136;28;20054;-77
2023/01/30 06:01:46;;;;;;;19.83;3.53;;;5.40;99.90;;;;;;5088886;28;20226;-78
2023/01/30 06:04:11;;;;;;;20.70;3.70;;;5.60;99.90;;;;;;5089074;28;20043;-79
2023/01/30 06:06:40;;;;;;;19.27;3.72;;;5.60;99.90;;;;;;5072460;28;20098;-78
2023/01/30 06:09:06;;;;;;;20.73;3.45;;;5.60;99.90;;;;;;5086446;28;20082;-79
2023/01/30 06:11:31;;;;;;;26.27;3.25;;;5.60;99.90;;;;;;5071599;28;20027;-78
2023/01/30 06:13:57;;;;;;;15.48;3.78;;;5.60;99.90;;;;;;5087989;28;20058;-77
2023/01/30 06:16:23;;;;;;;18.75;3.85;;;5.50;99.90;;;;;;5073275;28;20039;-78
2023/01/30 06:18:48;;;;;;;21.60;2.90;;;5.50;99.90;;;;;;5047559;28;20063;-78
2023/01/30 06:21:15;;;;;;;18.25;3.35;;;5.60;99.90;;;;;;5103370;28;20031;-77
2023/01/30 06:23:41;;;;;;;18.80;3.75;;;5.70;99.90;;;;;;5105253;28;20039;-78
2023/01/30 06:26:08;;;;;;;22.55;3.22;;;5.70;99.90;;;;;;5088711;28;20031;-76
2023/01/30 06:28:43;;;;;;;20.98;3.78;;;5.60;99.90;;;;;;5088377;28;20043;-76
2023/01/30 06:31:09;;;;;;;18.15;3.78;;;5.80;99.90;;;;;;5105148;28;20032;-77
2023/01/30 06:33:35;;;;;;;21.23;3.47;;;6.10;99.90;;;;;;5087867;28;20060;-76
2023/01/30 06:36:00;;;;;;;26.33;5.50;;;5.60;99.90;;;;;;5084310;28;20028;-77
2023/01/30 06:38:29;;;;;;;24.02;3.50;;;5.70;99.90;;;;;;5101391;28;20031;-77
2023/01/30 06:40:55;;;;;;;18.38;3.70;;;5.60;99.90;;;;;;5085961;28;20143;-77
2023/01/30 06:43:20;;;;;;;21.13;4.00;;;6.80;99.90;;;;;;5087882;28;20100;-77
2023/01/30 06:45:49;;;;;;;24.65;3.67;;;5.80;99.90;;;;;;5087875;28;20092;-77
2023/01/30 06:48:15;;;;;;;18.83;3.60;;;5.70;99.90;;;;;;5087480;28;20059;-78
2023/01/30 06:50:40;;;;;;;21.85;3.72;;;5.80;99.90;;;;;;5087814;28;20023;-77
2023/01/30 06:53:07;;;;;;;18.95;3.90;;;5.80;99.90;;;;;;5088180;28;20039;-75
2023/01/30 06:55:34;;;;;;;22.65;3.58;;;5.80;99.90;;;;;;5105351;28;20042;-72
2023/01/30 06:58:09;;;;;;;20.60;3.28;;;5.90;99.90;;;;;;5087929;28;20103;-77
2023/01/30 07:00:38;;;;;;;16.65;3.17;;;5.90;99.90;;;;;;5087743;28;20070;-77
2023/01/30 07:03:04;;;;;;;17.67;3.88;;;5.80;99.90;;;;;;5086862;28;20202;-76
2023/01/30 07:05:30;;;;;;;20.48;3.88;;;5.90;99.90;;;;;;5087146;28;20225;-76
2023/01/30 07:07:55;;;;;;;26.23;3.45;;;6.60;99.90;;;;;;5070996;28;20120;-76
2023/01/30 07:10:21;;;;;;;22.33;3.97;;;5.90;99.90;;;;;;5104308;28;20458;-76
2023/01/30 07:12:47;;;;;;;22.63;4.28;;;5.80;99.90;;;;;;5098394;28;20135;-75
2023/01/30 07:15:13;;;;;;;23.27;3.20;;;5.80;99.90;;;;;;5081749;28;20103;-75
2023/01/30 07:18:04;;;;;;;23.65;3.75;;;5.80;99.90;;;;;;5087551;28;20035;-75
2023/01/30 07:20:30;;;;;;;21.65;3.53;;;5.80;99.90;;;;;;5100772;28;20102;-76
2023/01/30 07:22:57;;;;;;;23.42;4.65;;;5.80;99.90;;;;;;5070346;28;20077;-75
2023/01/30 07:25:24;;;;;;;21.10;3.53;;;6.00;99.90;;;;;;5070270;28;20024;-75
2023/01/30 07:27:52;;;;;;;14.80;3.33;;;5.80;99.90;;;;;;5101691;28;20027;-76
2023/01/30 07:30:18;;;;;;;24.08;4.40;;;5.90;99.90;;;;;;5046936;28;20063;-77
2023/01/30 07:32:43;;;;;;;19.35;4.30;;;6.00;99.90;;;;;;5064904;28;20110;-77
2023/01/30 07:35:09;;;;;;;17.73;3.25;;;6.90;99.90;;;;;;5067098;28;20338;-77
2023/01/30 07:37:37;;;;;;;17.38;3.13;;;5.00;99.90;;;;;;5060623;28;20219;-77
2023/01/30 07:40:04;;;;;;;20.70;3.72;;;6.00;99.90;;;;;;5072139;28;20383;-77
2023/01/30 07:42:29;;;;;;;24.98;3.65;;;6.00;99.90;;;;;;5083292;28;20239;-77
2023/01/30 07:44:55;;;;;;;23.27;4.13;;;6.00;99.90;;;;;;5066625;28;20089;-77
2023/01/30 07:47:24;;;;;;;21.60;4.75;;;6.00;99.90;;;;;;5067240;28;20063;-77
2023/01/30 07:49:52;;;;;;;16.85;4.47;;;6.00;99.90;;;;;;5049844;28;20036;-77
2023/01/30 07:52:17;;;;;;;25.35;4.30;;;5.00;99.90;;;;;;5061102;28;20019;-76
2023/01/30 07:54:43;;;;;;;21.25;3.75;;;6.00;99.90;;;;;;5085323;28;20076;-77
2023/01/30 07:57:11;;;;;;;22.95;3.90;;;6.10;99.90;;;;;;5049305;28;20020;-76
2023/01/30 07:59:41;;;;;;;20.60;3.55;;;6.10;99.90;;;;;;5067085;28;20043;-76
2023/01/30 08:02:10;;;;;;;24.27;4.55;;;6.20;99.90;;;;;;5082797;28;20035;-76
2023/01/30 08:04:37;;;;;;;20.70;4.10;;;6.20;99.90;;;;;;5066421;28;20081;-75
2023/01/30 08:07:03;;;;;;;15.65;3.47;;;6.10;99.90;;;;;;5084045;28;20039;-76
2023/01/30 08:09:28;;;;;;;20.63;3.22;;;6.20;99.90;;;;;;5086201;28;20024;-75
2023/01/30 08:11:54;;;;;;;20.58;3.90;;;7.00;99.90;;;;;;5084429;28;20027;-75
2023/01/30 08:14:20;;;;;;;23.73;3.92;;;6.20;99.90;;;;;;5085047;28;20039;-75
2023/01/30 08:16:46;;;;;;;26.15;3.65;;;6.20;99.90;;;;;;5084791;28;20103;-75
2023/01/30 08:19:11;;;;;;;25.10;4.20;;;6.20;99.90;;;;;;5079906;28;20024;-75
2023/01/30 08:21:37;;;;;;;24.17;3.92;;;6.60;99.90;;;;;;5082728;28;20059;-74
2023/01/30 08:24:05;;;;;;;17.15;3.20;;;6.20;99.90;;;;;;5085469;28;20032;-75
2023/01/30 08:26:31;;;;;;;26.95;4.68;;;6.20;99.90;;;;;;5085990;28;20031;-75
2023/01/30 08:28:56;;;;;;;17.35;3.75;;;6.20;99.90;;;;;;5098229;28;20027;-75
2023/01/30 08:31:25;;;;;;;18.10;3.03;;;6.30;99.90;;;;;;5067456;28;20043;-75
2023/01/30 08:33:50;;;;;;;21.92;3.30;;;6.30;99.90;;;;;;5079480;28;20032;-75
2023/01/30 08:36:36;;;;;;;18.70;3.35;;;6.40;99.90;;;;;;5085694;28;20027;-75
2023/01/30 08:42:27;;;;;;;26.50;3.53;;;5.10;99.90;;;;;;5034143;28;20055;-75
2023/01/30 08:44:52;;;;;;;22.35;4.93;;;6.40;99.90;;;;;;5101863;28;20042;-74
2023/01/30 08:47:18;;;;;;;20.25;4.22;;;6.40;99.90;;;;;;5085707;28;20039;-74
2023/01/30 08:49:44;;;;;;;25.73;3.58;;;6.50;99.90;;;;;;5097748;28;20027;-75
2023/01/30 08:52:10;;;;;;;15.88;3.33;;;6.50;99.90;;;;;;5100382;28;20354;-75
2023/01/30 08:54:35;;;;;;;22.70;3.90;;;6.70;99.90;;;;;;5101047;28;20055;-74
2023/01/30 08:57:01;;;;;;;22.75;4.20;;;6.50;99.90;;;;;;5084784;28;20068;-75
2023/01/30 08:59:26;;;;;;;19.52;4.78;;;6.70;99.90;;;;;;5066906;28;20085;-75
2023/01/30 09:01:52;;;;;;;20.20;3.40;;;6.70;99.90;;;;;;5101199;28;20039;-75
2023/01/30 09:04:18;;;;;;;17.92;3.17;;;6.70;99.90;;;;;;5100888;28;20098;-74
2023/01/30 09:06:44;;;;;;;26.70;3.70;;;6.80;99.90;;;;;;5083129;28;20110;-75
2023/01/30 09:09:09;;;;;;;22.90;4.07;;;6.90;99.90;;;;;;5101194;28;20385;-75
2023/01/30 09:11:35;;;;;;;22.02;3.33;;;6.80;99.90;;;;;;5093462;28;20059;-74
2023/01/30 09:14:00;;;;;;;17.35;3.40;;;6.80;99.90;;;;;;5062728;28;20250;-75
2023/01/30 09:16:26;;;;;;;27.60;4.07;;;6.80;99.90;;;;;;5086849;28;20028;-74
2023/01/30 09:18:52;;;;;;;22.23;4.00;;;6.70;99.90;;;;;;5082158;28;20024;-74
2023/01/30 09:21:17;;;;;;;17.58;3.00;;;6.70;99.90;;;;;;5082441;28;20042;-74
2023/01/30 09:23:43;;;;;;;22.25;4.32;;;6.70;99.90;;;;;;5067091;28;20394;-74
2023/01/30 09:26:09;;;;;;;22.73;3.70;;;6.70;99.90;;;;;;5083062;28;20228;-74
2023/01/30 09:28:35;;;;;;;26.98;4.32;;;6.70;99.90;;;;;;5082957;28;20038;-74
2023/01/30 09:31:01;;;;;;;26.48;4.05;;;6.70;99.90;;;;;;5082647;28;20088;-73
2023/01/30 09:33:43;;;;;;;23.60;4.00;;;6.70;99.90;;;;;;5083667;28;20027;-73
2023/01/30 09:36:16;;;;;;;20.95;4.03;;;6.70;99.90;;;;;;5065752;28;20524;-74
2023/01/30 09:38:42;;;;;;;20.00;5.03;;;6.70;99.90;;;;;;5082859;28;20091;-74
2023/01/30 09:41:24;;;;;;;30.83;5.03;;;6.60;99.90;;;;;;5079842;28;20093;-75
2023/01/30 09:43:57;;;;;;;24.55;4.22;;;6.50;99.90;;;;;;5099508;28;20079;-74
2023/01/30 09:46:32;;;;;;;24.83;4.00;;;6.40;99.90;;;;;;5099384;28;21661;-74
2023/01/30 09:49:23;;;;;;;21.27;5.03;;;6.40;99.90;;;;;;5100308;28;20031;-74
2023/01/30 09:52:08;;;;;;;35.38;4.97;;;6.60;99.90;;;;;;5097357;28;20070;-74
2023/01/30 09:54:41;;;;;;;29.20;5.05;;;6.70;99.90;;;;;;5100142;28;20562;-75
2023/01/30 09:57:07;;;;;;;27.83;5.10;;;6.70;99.90;;;;;;5082842;28;20550;-73
2023/01/30 09:59:50;;;;;;;31.10;5.25;;;6.90;99.90;;;;;;5099537;28;20047;-74
2023/01/30 10:02:34;;;;;;;22.10;3.78;;;7.00;99.90;;;;;;5096620;28;20030;-72
2023/01/30 10:05:02;;;;;;;27.98;4.75;;;7.10;99.90;;;;;;5070706;28;20058;-74
2023/01/30 10:07:43;;;;;;;28.17;5.75;;;7.50;99.90;;;;;;5068981;28;20280;-74
2023/01/30 10:10:25;;;;;;;20.17;3.80;;;7.30;99.90;;;;;;5082818;28;20039;-74
2023/01/30 10:13:09;;;;;;;25.73;4.40;;;7.30;99.90;;;;;;5095697;28;20149;-73
2023/01/30 10:15:34;;;;;;;22.80;4.50;;;7.40;99.90;;;;;;5099553;28;20031;-74
2023/01/30 10:18:48;;;;;;;17.38;4.25;;;7.50;99.90;;;;;;5101502;28;20307;-74
2023/01/30 10:21:26;;;;;;;24.45;4.75;;;7.70;99.90;;;;;;5022374;28;20061;-75
2023/01/30 10:24:13;;;;;;;24.25;4.43;;;8.00;99.90;;;;;;5080579;28;20315;-75
2023/01/30 10:26:41;;;;;;;32.47;5.70;;;7.90;99.90;;;;;;5101110;28;20330;-75
2023/01/30 10:29:29;;;;;;;27.80;5.53;;;7.60;99.90;;;;;;5101900;28;20062;-75
2023/01/30 10:32:02;;;;;;;16.63;3.20;;;7.00;99.90;;;;;;5082395;28;20061;-75
2023/01/30 10:34:35;;;;;;;8.88;2.03;;;6.30;99.90;;;;;;5093343;28;20036;-74
2023/01/30 10:37:07;;;;;;;9.10;2.05;;;6.00;99.90;;;;;;5103202;28;20039;-74
2023/01/30 10:39:51;;;;;;;8.88;2.35;;;5.90;99.90;;;;;;5102222;28;20117;-74
2023/01/30 10:42:24;;;;;;;7.72;2.22;;;6.00;99.90;;;;;;5086278;28;20130;-75
2023/01/30 10:44:52;;;;;;;8.18;1.42;;;6.00;99.90;;;;;;5095456;28;20329;-77
2023/01/30 10:47:47;;;;;;;6.38;1.23;;;5.80;99.90;;;;;;5078293;28;21526;-76
2023/01/30 10:50:17;;;;;;;3.55;1.13;;;5.70;99.90;;;;;;5080690;28;20234;-75
2023/01/30 10:53:01;;;;;;;9.25;1.23;;;5.90;99.90;;;;;;5099147;27;20042;-76
2023/01/30 10:55:46;;;;;;;9.75;1.40;;;6.40;99.90;;;;;;5092588;28;20027;-76
2023/01/30 10:58:53;;;;;;;5.88;1.52;;;7.80;99.90;;;;;;5096712;28;20087;-77
2023/01/30 11:01:46;;;;;;;8.02;2.03;;;6.80;99.90;;;;;;5025179;28;20164;-76
2023/01/30 11:04:35;;;;;;;9.13;1.70;;;7.00;99.90;;;;;;5097904;28;20032;-75
2023/01/30 11:07:01;;;;;;;12.50;2.67;;;7.10;99.90;;;;;;5077629;28;20101;-76
2023/01/30 11:09:39;;;;;;;16.17;2.65;;;7.30;99.90;;;;;;5104708;28;20027;-75
2023/01/30 11:12:04;;;;;;;16.52;2.33;;;7.50;99.90;;;;;;5102950;28;20062;-75
2023/01/30 11:14:58;;;;;;;16.77;2.85;;;7.80;99.90;;;;;;5098706;28;20027;-76
2023/01/30 11:17:47;;;;;;;16.50;2.85;;;7.70;99.90;;;;;;5096182;27;20047;-76
2023/01/30 11:20:23;;;;;;;12.95;2.83;;;7.50;99.90;;;;;;5093954;28;20031;-76
2023/01/30 11:23:22;;;;;;;9.02;2.00;;;7.50;99.90;;;;;;5074432;28;20031;-77
2023/01/30 11:25:51;;;;;;;12.48;2.88;;;7.90;99.90;;;;;;5062937;28;20214;-76
2023/01/30 11:29:29;;;;;;;15.07;2.75;;;7.90;99.90;;;;;;5082632;28;20035;-75
2023/01/30 11:32:11;;;;;;;19.95;3.42;;;7.40;99.90;;;;;;4982431;28;20232;-78
2023/01/30 11:34:42;;;;;;;19.58;3.20;;;7.70;99.90;;;;;;5077927;28;20040;-75
2023/01/30 11:38:02;;;;;;;14.48;3.10;;;7.60;99.90;;;;;;5080080;28;20085;-77
2023/01/30 11:40:38;;;;;;;14.85;4.00;;;7.60;99.90;;;;;;5023206;28;20049;-75
2023/01/30 11:43:10;;;;;;;12.82;3.35;;;7.50;99.90;;;;;;5090986;28;20040;-77
2023/01/30 11:45:43;;;;;;;9.90;2.30;;;7.40;99.90;;;;;;5075745;28;20237;-76
2023/01/30 11:48:26;;;;;;;13.13;2.40;;;7.40;99.90;;;;;;5095558;28;20028;-76
2023/01/30 11:51:01;;;;;;;12.82;2.22;;;7.50;99.90;;;;;;5080633;28;20074;-77
2023/01/30 11:53:37;;;;;;;13.73;2.65;;;7.40;99.90;;;;;;5091120;28;20040;-76
2023/01/30 11:56:26;;;;;;;12.10;2.20;;;7.40;99.90;;;;;;5079918;28;20481;-77
2023/01/30 11:58:59;;;;;;;12.75;2.60;;;7.40;99.90;;;;;;5081185;28;20074;-78
2023/01/30 12:01:31;;;;;;;11.05;2.78;;;7.20;99.90;;;;;;5080336;28;20095;-76
2023/01/30 12:03:58;;;;;;;10.60;2.50;;;7.20;99.90;;;;;;5065203;28;20035;-75
2023/01/30 12:06:40;;;;;;;12.60;2.88;;;7.20;99.90;;;;;;5097481;28;20306;-77
2023/01/30 12:09:36;;;;;;;11.38;2.63;;;7.10;99.90;;;;;;5096702;28;20210;-76
2023/01/30 12:12:24;;;;;;;14.18;2.95;;;7.20;99.90;;;;;;5069281;28;20283;-77
2023/01/30 12:15:03;;;;;;;12.50;2.30;;;7.30;99.90;;;;;;5080707;28;20027;-76
2023/01/30 12:17:38;;;;;;;17.48;3.03;;;7.30;99.90;;;;;;5080100;28;20032;-76
2023/01/30 12:20:34;;;;;;;11.50;2.58;;;7.60;99.90;;;;;;5097335;28;20040;-76
2023/01/30 12:23:31;;;;;;;15.32;3.22;;;7.60;99.90;;;;;;5096972;28;20131;-77
2023/01/30 12:26:33;;;;;;;13.85;2.88;;;7.80;99.90;;;;;;5060683;28;20043;-78
2023/01/30 12:29:11;;;;;;;11.75;2.60;;;7.30;99.90;;;;;;5067394;28;20449;-75
2023/01/30 12:31:45;;;;;;;21.77;4.05;;;7.70;99.90;;;;;;5093980;28;20095;-76
2023/01/30 12:34:25;;;;;;;16.20;3.05;;;7.70;99.90;;;;;;5097881;28;20129;-76
2023/01/30 12:37:01;;;;;;;15.10;4.20;;;7.70;99.90;;;;;;5093280;28;20093;-76
2023/01/30 12:39:48;;;;;;;16.42;3.50;;;7.70;99.90;;;;;;5096481;28;20040;-75
2023/01/30 12:42:40;;;;;;;16.90;3.60;;;7.60;99.90;;;;;;5086141;28;20079;-76
2023/01/30 12:45:25;;;;;;;27.30;4.85;;;7.50;99.90;;;;;;5083877;28;20046;-75
2023/01/30 12:47:56;;;;;;;12.50;3.58;;;7.60;99.90;;;;;;5100558;28;20099;-75
2023/01/30 12:50:59;;;;;;;23.50;3.85;;;7.70;99.90;;;;;;5100126;28;20034;-77
2023/01/30 12:53:46;;;;;;;27.40;4.22;;;7.70;99.90;;;;;;5077670;28;20047;-76
2023/01/30 12:56:21;;;;;;;20.08;3.97;;;7.60;99.90;;;;;;5084207;28;20031;-75
2023/01/30 12:58:49;;;;;;;;;;;7.70;99.90;;;;;;5084201;28;20036;-75
2023/01/30 13:01:26;;;;;;;24.48;4.70;;;7.60;99.90;;;;;;5095715;28;19927;-75
2023/01/30 13:04:15;;;;;;;25.15;4.32;;;7.60;99.90;;;;;;5083746;28;20027;-75
2023/01/30 13:07:26;;;;;;;;;;;;;;;;;;;;;
2023/01/30 13:10:10;;;;;;;23.15;4.30;;;7.60;99.90;;;;;;5083991;28;20035;-75
2023/01/30 13:12:57;;;;;;;25.97;4.40;;;7.70;99.90;;;;;;5097937;28;20045;-76
2023/01/30 13:15:35;;;;;;;17.35;3.97;;;7.70;99.90;;;;;;5084111;28;20285;-76
2023/01/30 13:18:27;;;;;;;23.70;4.13;;;7.70;99.90;;;;;;5082643;28;20089;-76
2023/01/30 13:21:22;;;;;;;26.42;4.45;;;7.60;99.90;;;;;;5096987;28;20084;-76
2023/01/30 13:24:06;;;;;;;26.40;6.32;;;7.60;99.90;;;;;;5040561;28;20082;-77
2023/01/30 13:26:35;;;;;;;20.80;3.42;;;7.50;99.90;;;;;;5080258;28;20111;-76
2023/01/30 13:29:37;;;;;;;25.48;4.13;;;7.50;99.90;;;;;;5095093;28;20248;-74
2023/01/30 13:32:10;;;;;;;23.40;3.80;;;7.40;99.90;;;;;;5093421;28;20035;-75
2023/01/30 13:34:43;;;;;;;17.73;4.75;;;7.50;99.90;;;;;;5081792;28;20046;-75
2023/01/30 13:37:19;;;;;;;21.88;4.00;;;7.50;99.90;;;;;;5097731;28;20312;-75